createdAt,value
2019-04-23T00:01:04.717Z,12.80
2019-04-23T00:01:49.266Z,12.73
2019-04-23T00:02:50.824Z,12.80
2019-04-23T00:03:50.020Z,12.82
2019-04-23T00:04:47.924Z,12.86
2019-04-23T00:05:51.361Z,12.79
2019-04-23T00:07:03.529Z,12.87
2019-04-23T00:07:59.178Z,12.82
2019-04-23T00:09:12.438Z,12.78
2019-04-23T00:09:46.697Z,12.76
2019-04-23T00:10:53.407Z,12.76
2019-04-23T00:11:54.258Z,12.76
2019-04-23T00:12:49.609Z,12.76
2019-04-23T00:13:49.903Z,12.72
2019-04-23T00:14:57.781Z,12.61
2019-04-23T00:15:54.155Z,12.62
2019-04-23T00:16:49.311Z,12.61
2019-04-23T00:17:50.219Z,12.61
2019-04-23T00:18:46.510Z,12.53
2019-04-23T00:19:50.245Z,12.57
2019-04-23T00:20:47.962Z,12.58
2019-04-23T00:21:50.328Z,12.60
2019-04-23T00:22:51.831Z,12.61
2019-04-23T00:23:53.392Z,12.60
2019-04-23T00:26:59.646Z,12.53
2019-04-23T00:27:52.769Z,12.47
2019-04-23T00:28:58.892Z,12.53
2019-04-23T00:29:53.401Z,12.42
2019-04-23T00:30:54.968Z,12.42
2019-04-23T00:31:56.054Z,12.37
2019-04-23T00:32:51.653Z,12.21
2019-04-23T00:33:55.611Z,12.24
2019-04-23T00:36:07.044Z,12.20
2019-04-23T00:36:51.425Z,12.18
2019-04-23T00:37:48.403Z,12.18
2019-04-23T00:40:51.278Z,12.09
2019-04-23T00:41:52.896Z,12.10
2019-04-23T00:42:49.641Z,12.20
2019-04-23T00:43:54.625Z,12.21
2019-04-23T00:44:54.416Z,12.03
2019-04-23T00:45:59.396Z,12.10
2019-04-23T00:46:48.576Z,12.07
2019-04-23T00:47:51.354Z,12.04
2019-04-23T00:48:51.865Z,11.99
2019-04-23T00:49:51.121Z,12.00
2019-04-23T00:50:49.207Z,11.94
2019-04-23T00:51:55.233Z,11.91
2019-04-23T00:52:46.199Z,11.86
2019-04-23T00:53:43.939Z,11.73
2019-04-23T00:55:49.065Z,11.69
2019-04-23T00:56:54.439Z,11.62
2019-04-23T00:57:50.522Z,11.60
2019-04-23T00:58:51.158Z,11.44
2019-04-23T00:59:53.932Z,11.44
2019-04-23T01:01:56.742Z,11.33
2019-04-23T01:02:54.724Z,11.30
2019-04-23T01:03:50.443Z,11.30
2019-04-23T01:04:50.521Z,11.22
2019-04-23T01:05:50.350Z,11.19
2019-04-23T01:06:52.348Z,11.08
2019-04-23T01:08:50.957Z,11.19
2019-04-23T01:09:54.177Z,11.17
2019-04-23T01:10:52.556Z,11.22
2019-04-23T01:11:48.144Z,11.30
2019-04-23T01:12:51.200Z,11.17
2019-04-23T01:13:51.082Z,11.12
2019-04-23T01:14:48.159Z,11.17
2019-04-23T01:16:46.207Z,11.10
2019-04-23T01:19:49.528Z,11.25
2019-04-23T01:20:51.581Z,11.30
2019-04-23T01:21:28.435Z,11.40
2019-04-23T01:22:27.467Z,11.44
2019-04-23T01:23:31.978Z,11.29
2019-04-23T01:24:29.714Z,11.43
2019-04-23T01:25:35.116Z,11.37
2019-04-23T01:26:50.382Z,11.37
2019-04-23T01:28:55.940Z,11.36
2019-04-23T01:29:57.884Z,11.45
2019-04-23T01:30:55.324Z,11.45
2019-04-23T01:31:53.749Z,11.44
2019-04-23T01:32:54.564Z,11.43
2019-04-23T01:33:51.777Z,11.36
2019-04-23T01:34:59.507Z,11.41
2019-04-23T01:36:06.160Z,11.47
2019-04-23T01:36:51.583Z,11.48
2019-04-23T01:37:46.415Z,11.45
2019-04-23T01:38:55.948Z,11.50
2019-04-23T01:39:53.096Z,11.52
2019-04-23T01:40:48.457Z,11.50
2019-04-23T01:41:57.757Z,11.51
2019-04-23T01:43:03.018Z,11.69
2019-04-23T01:44:07.454Z,11.66
2019-04-23T01:45:14.972Z,11.69
2019-04-23T01:45:49.526Z,11.69
2019-04-23T01:46:56.160Z,11.69
2019-04-23T01:48:55.237Z,11.65
2019-04-23T01:50:52.858Z,11.69
2019-04-23T01:51:53.175Z,11.63
2019-04-23T01:53:51.510Z,11.65
2019-04-23T01:54:52.882Z,11.63
2019-04-23T01:55:54.449Z,11.60
2019-04-23T01:56:47.173Z,11.65
2019-04-23T01:58:53.507Z,11.75
2019-04-23T01:59:55.152Z,11.66
2019-04-23T02:00:53.239Z,11.69
2019-04-23T02:01:51.573Z,11.68
2019-04-23T02:02:55.932Z,11.68
2019-04-23T02:03:54.406Z,11.75
2019-04-23T02:05:01.273Z,11.78
2019-04-23T02:05:57.712Z,11.91
2019-04-23T02:06:50.519Z,11.86
2019-04-23T02:07:58.120Z,11.83
2019-04-23T02:08:52.407Z,11.80
2019-04-23T02:09:56.940Z,11.83
2019-04-23T02:10:56.436Z,11.87
2019-04-23T02:11:53.612Z,12.00
2019-04-23T02:12:55.645Z,12.02
2019-04-23T02:14:09.649Z,11.95
2019-04-23T02:14:59.361Z,11.87
2019-04-23T02:16:03.244Z,11.83
2019-04-23T02:16:51.541Z,11.88
2019-04-23T02:18:03.995Z,11.91
2019-04-23T02:19:11.340Z,11.90
2019-04-23T02:19:51.553Z,11.84
2019-04-23T02:20:55.926Z,11.87
2019-04-23T02:21:57.651Z,11.97
2019-04-23T02:23:50.792Z,11.88
2019-04-23T02:24:55.845Z,11.75
2019-04-23T02:26:48.604Z,11.75
2019-04-23T02:27:59.885Z,11.68
2019-04-23T02:28:54.642Z,11.78
2019-04-23T02:30:05.799Z,11.77
2019-04-23T02:31:15.422Z,11.77
2019-04-23T02:33:12.422Z,11.72
2019-04-23T02:34:00.941Z,11.73
2019-04-23T02:35:24.081Z,11.72
2019-04-23T02:36:01.270Z,11.69
2019-04-23T02:40:08.728Z,11.45
2019-04-23T02:41:03.816Z,11.40
2019-04-23T02:42:07.287Z,11.45
2019-04-23T02:43:08.865Z,11.41
2019-04-23T02:44:05.063Z,11.41
2019-04-23T02:44:56.232Z,11.33
2019-04-23T02:46:02.347Z,11.37
2019-04-23T02:47:17.594Z,11.30
2019-04-23T02:48:10.865Z,11.35
2019-04-23T02:50:18.011Z,11.23
2019-04-23T02:51:13.423Z,11.27
2019-04-23T02:52:01.832Z,11.29
2019-04-23T02:53:07.346Z,11.12
2019-04-23T02:54:04.568Z,11.23
2019-04-23T02:55:03.779Z,11.12
2019-04-23T02:56:06.886Z,11.11
2019-04-23T02:58:01.242Z,10.99
2019-04-23T02:59:08.095Z,10.87
2019-04-23T03:00:18.965Z,10.86
2019-04-23T03:02:12.061Z,10.69
2019-04-23T03:03:13.598Z,10.60
2019-04-23T03:03:59.666Z,10.63
2019-04-23T03:04:57.005Z,10.57
2019-04-23T03:07:02.910Z,10.57
2019-04-23T03:07:59.846Z,10.53
2019-04-23T03:08:56.069Z,10.46
2019-04-23T03:09:58.748Z,10.44
2019-04-23T03:11:45.691Z,10.41
2019-04-23T03:12:00.705Z,10.40
2019-04-23T03:13:27.946Z,10.48
2019-04-23T03:14:00.409Z,10.42
2019-04-23T03:15:10.998Z,10.46
2019-04-23T03:16:06.116Z,10.33
2019-04-23T03:16:56.418Z,10.31
2019-04-23T03:18:12.184Z,10.31
2019-04-23T03:20:08.023Z,10.37
2019-04-23T03:21:21.710Z,10.28
2019-04-23T03:21:59.744Z,10.33
2019-04-23T03:23:03.144Z,10.37
2019-04-23T03:24:02.243Z,10.28
2019-04-23T03:25:59.368Z,10.30
2019-04-23T03:27:07.418Z,10.22
2019-04-23T03:27:56.131Z,10.23
2019-04-23T03:30:52.986Z,10.16
2019-04-23T03:32:37.855Z,10.12
2019-04-23T03:38:12.064Z,10.02
2019-04-23T03:40:11.650Z,10.01
2019-04-23T03:41:08.890Z,9.95
2019-04-23T03:42:02.537Z,9.92
2019-04-23T03:43:46.923Z,9.86
2019-04-23T03:46:12.241Z,9.83
2019-04-23T03:48:05.966Z,9.82
2019-04-23T03:48:54.248Z,9.89
2019-04-23T03:50:15.802Z,9.76
2019-04-23T03:50:53.286Z,9.82
2019-04-23T03:52:01.199Z,9.76
2019-04-23T03:52:58.119Z,9.64
2019-04-23T03:54:20.922Z,9.73
2019-04-23T03:55:01.238Z,9.64
2019-04-23T03:56:07.948Z,9.59
2019-04-23T03:57:54.154Z,9.64
2019-04-23T03:58:58.197Z,9.61
2019-04-23T04:00:58.887Z,9.65
2019-04-23T04:03:27.819Z,9.66
2019-04-23T04:04:23.064Z,9.74
2019-04-23T04:04:55.860Z,9.72
2019-04-23T04:08:06.788Z,9.87
2019-04-23T04:09:08.073Z,9.84
2019-04-23T04:09:55.558Z,9.77
2019-04-23T04:11:04.354Z,9.82
2019-04-23T04:11:54.907Z,9.82
2019-04-23T04:12:59.539Z,9.82
2019-04-23T04:14:24.564Z,9.83
2019-04-23T04:18:11.030Z,9.84
2019-04-23T04:20:02.807Z,9.87
2019-04-23T04:21:02.859Z,9.86
2019-04-23T04:22:00.249Z,9.86
2019-04-23T04:23:07.833Z,9.97
2019-04-23T04:25:02.067Z,9.89
2019-04-23T04:25:58.457Z,9.86
2019-04-23T04:29:19.087Z,9.87
2019-04-23T04:30:19.155Z,9.82
2019-04-23T04:31:09.002Z,9.79
2019-04-23T04:33:21.315Z,9.83
2019-04-23T04:38:15.466Z,9.97
2019-04-23T04:40:10.977Z,9.95
2019-04-23T04:42:06.211Z,10.04
2019-04-23T04:43:20.507Z,9.98
2019-04-23T04:44:17.175Z,9.98
2019-04-23T04:47:09.762Z,10.15
2019-04-23T04:48:00.736Z,10.13
2019-04-23T04:49:01.476Z,10.07
2019-04-23T04:51:08.046Z,10.02
2019-04-23T04:53:33.412Z,10.02
2019-04-23T04:54:09.284Z,10.01
2019-04-23T04:55:05.212Z,10.04
2019-04-23T04:57:13.125Z,9.98
2019-04-23T04:59:09.344Z,9.98
2019-04-23T05:00:11.055Z,9.89
2019-04-23T05:01:08.166Z,9.94
2019-04-23T05:04:05.561Z,9.84
2019-04-23T05:06:24.536Z,10.17
2019-04-23T05:08:07.401Z,10.26
2019-04-23T05:10:25.828Z,10.33
2019-04-23T05:11:13.581Z,10.34
2019-04-23T05:12:14.446Z,10.28
2019-04-23T05:14:06.668Z,10.33
2019-04-23T05:17:11.163Z,10.51
2019-04-23T05:18:09.931Z,10.48
2019-04-23T05:20:04.600Z,10.59
2019-04-23T05:22:06.639Z,10.71
2019-04-23T05:23:05.980Z,10.71
2019-04-23T05:24:14.823Z,10.82
2019-04-23T05:24:51.031Z,10.84
2019-04-23T05:26:01.102Z,10.97
2019-04-23T05:27:01.207Z,10.97
2019-04-23T05:28:28.311Z,11.11
2019-04-23T05:29:06.232Z,11.19
2019-04-23T05:30:01.735Z,11.22
2019-04-23T05:31:02.233Z,11.19
2019-04-23T05:31:58.179Z,11.23
2019-04-23T05:33:05.939Z,11.43
2019-04-23T05:34:11.164Z,11.44
2019-04-23T05:34:55.473Z,11.44
2019-04-23T05:36:13.068Z,11.44
2019-04-23T05:37:00.023Z,11.44
2019-04-23T05:38:08.889Z,11.51
2019-04-23T05:39:56.726Z,11.47
2019-04-23T05:41:03.714Z,11.45
2019-04-23T05:42:00.623Z,11.50
2019-04-23T05:42:59.651Z,11.44
2019-04-23T05:44:02.246Z,11.44
2019-04-23T05:45:06.096Z,11.50
2019-04-23T05:45:59.305Z,11.43
2019-04-23T05:46:59.653Z,11.40
2019-04-23T05:48:06.742Z,11.50
2019-04-23T05:49:00.162Z,11.52
2019-04-23T05:50:00.766Z,11.62
2019-04-23T05:51:04.587Z,11.60
2019-04-23T05:53:01.309Z,11.68
2019-04-23T05:53:58.446Z,11.78
2019-04-23T05:56:01.799Z,11.78
2019-04-23T05:56:55.309Z,11.90
2019-04-23T05:58:00.907Z,11.88
2019-04-23T05:58:58.103Z,11.97
2019-04-23T05:59:55.360Z,12.06
2019-04-23T06:01:05.870Z,12.02
2019-04-23T06:01:56.981Z,12.10
2019-04-23T06:03:04.866Z,12.07
2019-04-23T06:04:04.028Z,12.21
2019-04-23T06:04:58.019Z,12.13
2019-04-23T06:06:04.732Z,12.15
2019-04-23T06:07:33.293Z,12.18
2019-04-23T06:09:03.562Z,12.27
2019-04-23T06:09:59.481Z,12.32
2019-04-23T06:11:02.545Z,12.40
2019-04-23T06:13:01.385Z,12.49
2019-04-23T06:14:57.648Z,12.46
2019-04-23T06:15:58.065Z,12.57
2019-04-23T06:17:00.495Z,12.76
2019-04-23T06:18:06.652Z,12.85
2019-04-23T06:19:01.171Z,12.93
2019-04-23T06:19:51.400Z,12.98
2019-04-23T06:22:06.038Z,13.05
2019-04-23T06:23:02.023Z,13.11
2019-04-23T06:23:58.280Z,13.15
2019-04-23T06:25:08.542Z,13.28
2019-04-23T06:27:05.098Z,13.38
2019-04-23T06:28:05.981Z,13.50
2019-04-23T06:29:10.312Z,13.50
2019-04-23T06:29:57.053Z,13.53
2019-04-23T06:31:02.401Z,13.53
2019-04-23T06:31:55.242Z,13.56
2019-04-23T06:33:04.347Z,13.59
2019-04-23T06:34:03.883Z,13.56
2019-04-23T06:35:00.938Z,13.67
2019-04-23T06:35:57.294Z,13.75
2019-04-23T06:36:57.483Z,13.79
2019-04-23T06:39:17.715Z,13.87
2019-04-23T06:40:55.486Z,14.03
2019-04-23T06:41:59.215Z,14.11
2019-04-23T06:43:00.547Z,14.25
2019-04-23T06:44:09.308Z,14.23
2019-04-23T06:44:58.224Z,14.28
2019-04-23T06:45:49.276Z,14.26
2019-04-23T06:48:01.871Z,14.35
2019-04-23T06:48:54.931Z,14.41
2019-04-23T06:49:55.912Z,14.50
2019-04-23T06:52:57.399Z,14.59
2019-04-23T06:53:57.399Z,14.62
2019-04-23T06:57:08.778Z,14.89
2019-04-23T06:58:03.186Z,14.86
2019-04-23T06:58:58.937Z,14.85
2019-04-23T06:59:55.581Z,14.81
2019-04-23T07:01:03.415Z,14.79
2019-04-23T07:03:03.124Z,14.85
2019-04-23T07:04:02.954Z,14.88
2019-04-23T07:06:11.761Z,14.88
2019-04-23T07:07:59.509Z,14.99
2019-04-23T07:10:13.003Z,15.14
2019-04-23T07:10:57.885Z,15.10
2019-04-23T07:11:54.017Z,15.09
2019-04-23T07:12:57.763Z,15.09
2019-04-23T07:13:57.599Z,15.24
2019-04-23T07:14:59.553Z,15.28
2019-04-23T07:15:53.717Z,15.36
2019-04-23T07:16:55.968Z,15.37
2019-04-23T07:17:55.541Z,15.42
2019-04-23T07:19:16.516Z,15.49
2019-04-23T07:19:58.476Z,15.47
2019-04-23T07:21:00.980Z,15.59
2019-04-23T07:22:03.332Z,15.58
2019-04-23T07:22:59.152Z,15.68
2019-04-23T07:24:08.675Z,15.77
2019-04-23T07:25:00.463Z,15.76
2019-04-23T07:26:08.163Z,15.83
2019-04-23T07:26:45.475Z,15.86
2019-04-23T07:27:59.095Z,15.82
2019-04-23T07:30:06.595Z,15.77
2019-04-23T07:30:59.997Z,15.79
2019-04-23T07:32:56.588Z,15.91
2019-04-23T07:35:00.925Z,16.16
2019-04-23T07:36:00.011Z,16.13
2019-04-23T07:36:53.736Z,16.24
2019-04-23T07:38:08.920Z,16.20
2019-04-23T07:39:01.199Z,16.31
2019-04-23T07:40:22.961Z,16.33
2019-04-23T07:41:03.819Z,16.36
2019-04-23T07:42:03.377Z,16.38
2019-04-23T07:43:00.111Z,16.29
2019-04-23T07:44:08.421Z,16.15
2019-04-23T07:45:13.698Z,15.91
2019-04-23T07:46:08.563Z,15.84
2019-04-23T07:47:11.553Z,15.82
2019-04-23T07:48:06.168Z,15.75
2019-04-23T07:48:55.762Z,15.94
2019-04-23T07:50:12.879Z,15.94
2019-04-23T07:50:55.143Z,16.00
2019-04-23T07:52:03.704Z,16.02
2019-04-23T07:53:07.129Z,16.04
2019-04-23T07:54:06.007Z,16.12
2019-04-23T07:55:02.177Z,16.13
2019-04-23T07:57:01.823Z,16.26
2019-04-23T07:58:56.792Z,16.29
2019-04-23T08:00:00.699Z,16.31
2019-04-23T08:01:09.663Z,16.47
2019-04-23T08:01:59.731Z,16.49
2019-04-23T08:03:08.436Z,16.56
2019-04-23T08:03:55.842Z,16.42
2019-04-23T08:05:15.660Z,16.56
2019-04-23T08:05:55.615Z,16.75
2019-04-23T08:07:01.188Z,16.84
2019-04-23T08:07:55.888Z,16.90
2019-04-23T08:08:56.872Z,17.06
2019-04-23T08:11:17.957Z,17.12
2019-04-23T08:11:56.657Z,17.11
2019-04-23T08:12:59.579Z,17.22
2019-04-23T08:13:59.097Z,17.22
2019-04-23T08:15:01.291Z,17.06
2019-04-23T08:15:58.549Z,16.97
2019-04-23T08:17:04.032Z,17.08
2019-04-23T08:18:00.210Z,17.09
2019-04-23T08:19:05.674Z,17.16
2019-04-23T08:19:59.648Z,17.22
2019-04-23T08:20:55.759Z,17.29
2019-04-23T08:22:09.273Z,17.39
2019-04-23T08:22:54.985Z,17.39
2019-04-23T08:23:55.469Z,17.42
2019-04-23T08:25:14.315Z,17.49
2019-04-23T08:26:03.220Z,17.49
2019-04-23T08:27:55.507Z,17.48
2019-04-23T08:29:49.420Z,17.71
2019-04-23T08:30:59.219Z,17.74
2019-04-23T08:32:05.391Z,17.86
2019-04-23T08:32:57.607Z,17.92
2019-04-23T08:34:15.173Z,18.03
2019-04-23T08:34:58.796Z,17.86
2019-04-23T08:35:57.646Z,17.85
2019-04-23T08:38:57.028Z,17.48
2019-04-23T08:40:15.174Z,17.59
2019-04-23T08:41:03.954Z,17.67
2019-04-23T08:43:00.679Z,17.72
2019-04-23T08:43:57.228Z,17.67
2019-04-23T08:45:13.298Z,17.49
2019-04-23T08:45:59.133Z,17.44
2019-04-23T08:47:05.221Z,17.51
2019-04-23T08:48:04.163Z,17.60
2019-04-23T08:49:04.256Z,17.51
2019-04-23T08:49:50.571Z,17.56
2019-04-23T08:51:07.472Z,17.57
2019-04-23T08:52:03.193Z,17.63
2019-04-23T08:53:03.840Z,17.54
2019-04-23T08:53:55.519Z,17.70
2019-04-23T08:56:12.397Z,17.74
2019-04-23T08:57:02.628Z,17.65
2019-04-23T08:57:52.903Z,17.44
2019-04-23T08:59:02.417Z,17.41
2019-04-23T08:59:55.689Z,17.60
2019-04-23T09:00:58.662Z,17.70
2019-04-23T09:03:00.220Z,17.82
2019-04-23T09:03:56.379Z,17.94
2019-04-23T09:05:00.106Z,18.00
2019-04-23T09:06:12.263Z,18.18
2019-04-23T09:07:04.379Z,18.08
2019-04-23T09:07:59.619Z,18.04
2019-04-23T09:08:56.813Z,18.16
2019-04-23T09:09:57.634Z,18.31
2019-04-23T09:11:54.312Z,18.25
2019-04-23T09:13:10.099Z,18.35
2019-04-23T09:15:01.854Z,18.66
2019-04-23T09:15:58.249Z,18.73
2019-04-23T09:17:03.188Z,18.77
2019-04-23T09:18:02.775Z,18.95
2019-04-23T09:19:04.044Z,19.07
2019-04-23T09:20:54.762Z,18.81
2019-04-23T09:22:04.116Z,18.88
2019-04-23T09:22:53.101Z,18.86
2019-04-23T09:25:06.282Z,19.24
2019-04-23T09:25:54.401Z,19.30
2019-04-23T09:27:00.474Z,19.41
2019-04-23T09:28:23.829Z,19.63
2019-04-23T09:29:14.240Z,19.79
2019-04-23T09:30:00.079Z,19.76
2019-04-23T09:31:02.826Z,19.62
2019-04-23T09:32:14.806Z,19.62
2019-04-23T09:33:00.381Z,19.82
2019-04-23T09:33:58.369Z,19.96
2019-04-23T09:35:52.448Z,19.56
2019-04-23T09:36:59.667Z,19.73
2019-04-23T09:38:04.169Z,19.84
2019-04-23T09:39:00.255Z,19.82
2019-04-23T09:39:59.505Z,19.84
2019-04-23T09:41:15.860Z,20.02
2019-04-23T09:41:51.763Z,20.31
2019-04-23T09:43:00.525Z,20.52
2019-04-23T09:44:02.781Z,20.69
2019-04-23T09:45:13.022Z,20.48
2019-04-23T09:45:59.770Z,20.07
2019-04-23T09:47:00.706Z,20.10
2019-04-23T09:49:09.837Z,20.51
2019-04-23T09:49:57.341Z,20.59
2019-04-23T09:50:59.102Z,20.72
2019-04-23T09:52:01.079Z,20.58
2019-04-23T09:53:05.974Z,20.26
2019-04-23T09:54:00.707Z,19.84
2019-04-23T09:55:15.499Z,19.67
2019-04-23T09:55:45.565Z,19.45
2019-04-23T09:56:52.070Z,19.30
2019-04-23T09:59:02.451Z,19.18
2019-04-23T10:00:01.687Z,19.21
2019-04-23T10:00:54.493Z,19.31
2019-04-23T10:01:52.862Z,19.39
2019-04-23T10:02:45.274Z,19.30
2019-04-23T10:03:45.113Z,19.26
2019-04-23T10:04:44.933Z,19.19
2019-04-23T10:05:39.615Z,19.29
2019-04-23T10:06:34.529Z,19.33
2019-04-23T10:07:41.885Z,19.45
2019-04-23T10:08:35.593Z,19.63
2019-04-23T10:09:30.047Z,19.76
2019-04-23T10:10:28.249Z,19.67
2019-04-23T10:11:28.423Z,19.67
2019-04-23T10:12:28.192Z,19.85
2019-04-23T10:13:27.904Z,19.71
2019-04-23T10:14:28.368Z,19.71
2019-04-23T10:15:34.332Z,19.77
2019-04-23T10:16:32.423Z,19.88
2019-04-23T10:17:28.908Z,20.02
2019-04-23T10:18:29.094Z,20.09
2019-04-23T10:19:28.724Z,20.19
2019-04-23T10:20:28.964Z,20.13
2019-04-23T10:21:29.177Z,20.29
2019-04-23T10:22:29.482Z,20.43
2019-04-23T10:23:29.382Z,20.52
2019-04-23T10:24:27.802Z,20.52
2019-04-23T10:25:27.973Z,20.56
2019-04-23T10:26:28.297Z,20.59
2019-04-23T10:27:29.336Z,20.58
2019-04-23T10:28:27.742Z,20.50
2019-04-23T10:29:27.841Z,20.25
2019-04-23T10:30:28.865Z,20.10
2019-04-23T10:31:27.723Z,20.00
2019-04-23T10:32:27.725Z,20.11
2019-04-23T10:33:29.614Z,20.10
2019-04-23T10:34:29.246Z,20.06
2019-04-23T10:35:39.065Z,20.02
2019-04-23T10:36:30.515Z,19.86
2019-04-23T10:37:39.393Z,19.85
2019-04-23T10:38:30.197Z,19.63
2019-04-23T10:39:32.413Z,19.45
2019-04-23T10:40:33.751Z,19.51
2019-04-23T10:41:29.179Z,19.48
2019-04-23T10:42:30.281Z,19.49
2019-04-23T10:43:30.350Z,19.45
2019-04-23T10:44:29.126Z,19.69
2019-04-23T10:45:42.583Z,19.66
2019-04-23T10:46:48.599Z,19.82
2019-04-23T10:48:05.430Z,20.09
2019-04-23T10:49:04.527Z,20.11
2019-04-23T10:49:58.104Z,20.36
2019-04-23T10:51:00.189Z,20.29
2019-04-23T10:51:59.743Z,20.10
2019-04-23T10:53:04.513Z,20.31
2019-04-23T10:53:56.466Z,20.34
2019-04-23T10:54:59.064Z,20.32
2019-04-23T10:56:02.799Z,20.50
2019-04-23T10:56:59.811Z,20.72
2019-04-23T10:57:56.801Z,20.62
2019-04-23T10:58:54.505Z,20.65
2019-04-23T10:59:53.452Z,21.06
2019-04-23T11:01:00.216Z,21.32
2019-04-23T11:02:22.240Z,21.52
2019-04-23T11:02:58.900Z,21.67
2019-04-23T11:04:57.658Z,21.36
2019-04-23T11:05:58.876Z,21.37
2019-04-23T11:07:13.488Z,21.55
2019-04-23T11:07:47.503Z,21.67
2019-04-23T11:08:57.827Z,21.67
2019-04-23T11:09:58.696Z,21.46
2019-04-23T11:10:58.743Z,21.45
2019-04-23T11:12:07.730Z,21.43
2019-04-23T11:15:08.647Z,21.76
2019-04-23T11:20:58.242Z,21.82
2019-04-23T11:22:05.859Z,22.17
2019-04-23T11:22:51.792Z,22.57
2019-04-23T11:24:02.519Z,22.75
2019-04-23T11:25:23.623Z,22.60
2019-04-23T11:25:48.712Z,22.87
2019-04-23T11:26:57.950Z,23.13
2019-04-23T11:27:58.547Z,22.84
2019-04-23T11:28:55.578Z,22.72
2019-04-23T11:30:00.269Z,22.53
2019-04-23T11:31:07.984Z,22.75
2019-04-23T11:32:05.874Z,22.91
2019-04-23T11:33:00.738Z,23.18
2019-04-23T11:34:00.923Z,23.40
2019-04-23T11:35:24.443Z,23.76
2019-04-23T11:36:18.993Z,23.63
2019-04-23T11:38:58.425Z,24.42
2019-04-23T11:40:04.158Z,24.77
2019-04-23T11:40:49.521Z,24.89
2019-04-23T11:42:27.398Z,24.57
2019-04-23T11:43:03.905Z,24.66
2019-04-23T11:43:53.419Z,24.33
2019-04-23T11:44:59.252Z,24.30
2019-04-23T11:51:32.348Z,24.60
2019-04-23T11:52:54.438Z,25.33
2019-04-23T11:54:07.065Z,25.84
2019-04-23T11:55:00.640Z,25.87
2019-04-23T11:57:14.206Z,26.48
2019-04-23T11:58:07.738Z,26.40
2019-04-23T11:58:52.683Z,25.47
2019-04-23T12:01:03.198Z,25.63
2019-04-23T12:02:05.326Z,25.99
2019-04-23T12:04:07.288Z,26.38
2019-04-23T12:04:59.182Z,26.55
2019-04-23T12:06:03.684Z,26.65
2019-04-23T12:07:00.714Z,26.75
2019-04-23T12:07:57.672Z,26.73
2019-04-23T12:08:56.331Z,26.48
2019-04-23T12:11:15.299Z,26.03
2019-04-23T12:12:57.680Z,25.41
2019-04-23T12:14:04.250Z,25.33
2019-04-23T12:14:54.310Z,25.31
2019-04-23T12:15:53.004Z,25.28
2019-04-23T12:17:08.225Z,25.13
2019-04-23T12:19:14.242Z,24.68
2019-04-23T12:20:52.758Z,24.68
2019-04-23T12:22:02.735Z,24.53
2019-04-23T12:23:04.183Z,24.43
2019-04-23T12:25:07.715Z,24.51
2019-04-23T12:26:03.007Z,24.70
2019-04-23T12:27:02.298Z,24.14
2019-04-23T12:27:42.298Z,23.77
2019-04-23T12:29:52.733Z,23.21
2019-04-23T12:30:57.324Z,23.17
2019-04-23T12:32:01.836Z,23.41
2019-04-23T12:33:11.696Z,23.63
2019-04-23T12:33:57.539Z,23.40
2019-04-23T12:35:43.684Z,22.90
2019-04-23T12:36:50.943Z,23.23
2019-04-23T12:37:55.909Z,23.47
2019-04-23T12:38:56.810Z,23.46
2019-04-23T12:40:00.765Z,23.28
2019-04-23T12:42:10.698Z,23.76
2019-04-23T12:43:04.887Z,23.76
2019-04-23T12:43:54.836Z,23.58
2019-04-23T12:45:47.426Z,23.18
2019-04-23T12:47:04.827Z,23.10
2019-04-23T12:49:15.498Z,22.90
2019-04-23T12:50:21.390Z,22.83
2019-04-23T12:51:10.298Z,22.87
2019-04-23T12:51:56.200Z,23.05
2019-04-23T12:53:05.700Z,22.98
2019-04-23T12:53:52.465Z,22.78
2019-04-23T12:55:50.434Z,22.47
2019-04-23T12:58:45.261Z,21.95
2019-04-23T12:59:56.930Z,22.04
2019-04-23T13:00:48.220Z,21.98
2019-04-23T13:01:57.402Z,22.11
2019-04-23T13:03:46.011Z,22.11
2019-04-23T13:04:51.829Z,22.06
2019-04-23T13:05:42.267Z,21.79
2019-04-23T13:08:02.103Z,21.80
2019-04-23T13:08:54.441Z,21.51
2019-04-23T13:10:17.500Z,21.57
2019-04-23T13:10:51.278Z,21.67
2019-04-23T13:12:01.546Z,21.39
2019-04-23T13:13:03.987Z,21.37
2019-04-23T13:13:58.853Z,21.37
2019-04-23T13:14:59.534Z,21.40
2019-04-23T13:15:53.614Z,21.37
2019-04-23T13:17:01.949Z,21.45
2019-04-23T13:17:54.246Z,21.39
2019-04-23T13:19:03.601Z,21.37
2019-04-23T13:20:51.674Z,21.54
2019-04-23T13:22:21.497Z,21.67
2019-04-23T13:23:49.463Z,21.48
2019-04-23T13:24:53.902Z,21.55
2019-04-23T13:25:56.171Z,21.70
2019-04-23T13:26:56.539Z,21.85
2019-04-23T13:28:02.847Z,21.88
2019-04-23T13:28:50.939Z,21.77
2019-04-23T13:30:00.324Z,21.70
2019-04-23T13:31:48.201Z,21.88
2019-04-23T13:33:01.116Z,21.93
2019-04-23T13:33:58.645Z,21.99
2019-04-23T13:35:29.278Z,22.06
2019-04-23T13:36:03.338Z,22.02
2019-04-23T13:36:51.355Z,22.04
2019-04-23T13:37:59.455Z,21.93
2019-04-23T13:39:14.641Z,22.04
2019-04-23T13:39:52.325Z,22.04
2019-04-23T13:41:01.138Z,22.07
2019-04-23T13:41:54.066Z,22.10
2019-04-23T13:43:12.231Z,22.06
2019-04-23T13:43:47.780Z,21.95
2019-04-23T13:44:57.431Z,21.82
2019-04-23T13:46:03.651Z,21.67
2019-04-23T13:47:00.007Z,21.67
2019-04-23T13:48:02.878Z,21.60
2019-04-23T13:48:47.046Z,21.64
2019-04-23T13:49:58.393Z,21.69
2019-04-23T13:50:59.466Z,21.61
2019-04-23T13:51:58.704Z,21.52
2019-04-23T13:53:51.358Z,21.67
2019-04-23T13:55:11.038Z,21.77
2019-04-23T13:55:56.677Z,21.80
2019-04-23T13:58:07.569Z,21.93
2019-04-23T13:58:55.033Z,21.99
2019-04-23T13:59:55.995Z,22.02
2019-04-23T14:01:46.573Z,21.85
2019-04-23T14:04:11.742Z,21.83
2019-04-23T14:04:59.750Z,21.76
2019-04-23T14:06:04.856Z,21.75
2019-04-23T14:06:55.582Z,21.69
2019-04-23T14:08:59.669Z,21.46
2019-04-23T14:10:55.362Z,21.37
2019-04-23T14:11:51.523Z,21.40
2019-04-23T14:13:15.179Z,21.42
2019-04-23T14:15:12.598Z,21.40
2019-04-23T14:17:00.097Z,21.27
2019-04-23T14:18:13.271Z,21.11
2019-04-23T14:18:58.410Z,21.00
2019-04-23T14:19:53.220Z,20.90
2019-04-23T14:20:59.007Z,20.84
2019-04-23T14:21:51.726Z,20.74
2019-04-23T14:25:01.654Z,20.75
2019-04-23T14:26:10.468Z,20.85
2019-04-23T14:27:18.069Z,20.87
2019-04-23T14:28:05.172Z,20.82
2019-04-23T14:28:52.623Z,20.90
2019-04-23T14:30:05.172Z,20.85
2019-04-23T14:32:05.023Z,20.97
2019-04-23T14:32:53.747Z,20.82
2019-04-23T14:35:06.117Z,20.77
2019-04-23T14:35:50.946Z,20.70
2019-04-23T14:36:57.801Z,20.78
2019-04-23T14:38:09.830Z,20.67
2019-04-23T14:39:52.663Z,20.70
2019-04-23T14:41:04.621Z,20.72
2019-04-23T14:41:56.465Z,20.62
2019-04-23T14:45:06.292Z,20.60
2019-04-23T14:47:04.546Z,20.52
2019-04-23T14:48:02.582Z,20.63
2019-04-23T14:48:57.689Z,20.60
2019-04-23T14:50:17.070Z,20.56
2019-04-23T14:51:00.348Z,20.60
2019-04-23T14:53:10.088Z,20.52
2019-04-23T14:54:12.937Z,20.48
2019-04-23T14:55:33.709Z,20.47
2019-04-23T14:56:13.264Z,20.39
2019-04-23T14:56:58.831Z,20.40
2019-04-23T14:58:06.425Z,20.52
2019-04-23T14:59:53.825Z,20.48
2019-04-23T15:01:13.662Z,20.44
2019-04-23T15:01:54.911Z,20.52
2019-04-23T15:03:00.288Z,20.47
2019-04-23T15:03:50.569Z,20.43
2019-04-23T15:04:54.388Z,20.31
2019-04-23T15:06:10.522Z,20.25
2019-04-23T15:07:04.121Z,20.26
2019-04-23T15:07:57.678Z,20.29
2019-04-23T15:09:19.695Z,20.34
2019-04-23T15:10:01.439Z,20.29
2019-04-23T15:11:07.619Z,20.31
2019-04-23T15:12:02.238Z,20.29
2019-04-23T15:13:01.819Z,20.31
2019-04-23T15:13:58.488Z,20.32
2019-04-23T15:15:01.612Z,20.28
2019-04-23T15:16:03.047Z,20.26
2019-04-23T15:17:07.671Z,20.29
2019-04-23T15:17:55.631Z,20.31
2019-04-23T15:19:59.978Z,20.29
2019-04-23T15:21:12.902Z,20.31
2019-04-23T15:22:05.238Z,20.18
2019-04-23T15:24:00.769Z,20.16
2019-04-23T15:25:06.906Z,20.16
2019-04-23T15:26:40.344Z,20.19
2019-04-23T15:28:34.132Z,20.18
2019-04-23T15:29:47.614Z,20.18
2019-04-23T15:30:59.148Z,20.19
2019-04-23T15:31:55.732Z,20.13
2019-04-23T15:33:05.908Z,20.18
2019-04-23T15:34:03.774Z,20.14
2019-04-23T15:35:03.112Z,20.18
2019-04-23T15:36:18.456Z,20.19
2019-04-23T15:37:14.041Z,20.22
2019-04-23T15:38:20.487Z,20.21
2019-04-23T15:41:01.988Z,20.21
2019-04-23T15:42:08.881Z,20.14
2019-04-23T15:42:58.157Z,20.21
2019-04-23T15:43:57.738Z,20.19
2019-04-23T15:44:55.725Z,20.19
2019-04-23T15:45:52.677Z,20.06
2019-04-23T15:46:57.212Z,20.07
2019-04-23T15:47:56.454Z,20.10
2019-04-23T15:49:01.400Z,20.06